Jacques Jacob — ZDKG7 — position and weather

sailwx.info

Track history (hours):
 
Tides and Currents Weather Stations Pressure Air Temp Water Temp Dewpoint Dewpoint Depression Visibility Wind Speed Wind Dir Waves Ship Positions

Jacques Jacob

Last reported at 2016-May-15 12:18 UTC. Time now 2016-May-26 22:37 UTC.
Position N 29°34' W 089°47'.
Warning: this ship's position is 11 days out of date.

Length 228 m; draft 8.6 m.

Type: Tanker. MMSI: 236612000.

Date/timePositionNaut miles runAvg speedWind from/ knotsBaromVisibWave heightAir tempDewpointWater temp
2016-May-15 12:18N 29°34' W 089°47'1013.9
2016-May-15 11:33N 29°39' W 089°57'1312.6
2016-May-15 10:33N 29°52' W 089°59'5 4.8
2016-May-15 09:34N 29°57' W 090°00'8 8.0
2016-May-15 08:33N 29°57' W 090°09'9 9.1
2016-May-15 07:33N 29°56' W 090°20'1 0.0
2016-May-13 21:07N 29°56' W 090°21'5 7.7
2016-May-13 20:24N 29°58' W 090°15'5 5.8
2016-May-13 19:33N 29°57' W 090°10'5 4.9
2016-May-13 18:34N 29°55' W 090°04'4 4.0
2016-May-13 17:33N 29°56' W 089°60'6 6.1
2016-May-13 16:34N 29°52' W 089°55'5 0.5
2016-May-13 05:33N 29°50' W 089°60'5 5.2
2016-May-13 04:31N 29°45' W 090°01'  
2016-May-06 02:29N 29°40' W 089°57'1213.3
2016-May-06 01:33N 29°52' W 089°59'6 6.0
2016-May-06 00:34N 29°57' W 090°02'3 3.3
2016-May-05 23:31N 29°55' W 090°05'0 0.0
2016-May-05 22:31N 29°55' W 090°05'0 0.0
2016-May-05 21:31N 29°55' W 090°05'0 0.0
2016-May-05 20:31N 29°55' W 090°05'0 0.0
2016-May-05 19:31N 29°55' W 090°05'0 0.0
2016-May-05 18:34N 29°55' W 090°05'0 0.0
2016-May-05 17:34N 29°55' W 090°05'0 0.0
2016-May-05 16:33N 29°55' W 090°05'0 0.0
2016-May-05 15:33N 29°55' W 090°05'0 0.0
2016-May-05 14:33N 29°55' W 090°05'0 0.0
2016-May-05 13:33N 29°55' W 090°05'0 0.0
2016-May-05 12:33N 29°55' W 090°05'  
Track history (hours):
 
Tides and Currents Weather Stations Pressure Air Temp Water Temp Dewpoint Dewpoint Depression Visibility Wind Speed Wind Dir Waves Ship Positions

Jacques Jacob

Last reported at 2016-May-15 12:18 UTC. Time now 2016-May-26 22:37 UTC.
Position N 29°34' W 089°47'.
Warning: this ship's position is 11 days out of date.

Length 228 m; draft 8.6 m.

Type: Tanker. MMSI: 236612000.

Date/timePositionNaut miles runAvg speedWind from/ knotsBaromVisibWave heightAir tempDewpointWater temp
2016-May-15 12:18N 29°34' W 089°47'1013.9
2016-May-15 11:33N 29°39' W 089°57'1312.6
2016-May-15 10:33N 29°52' W 089°59'5 4.8
2016-May-15 09:34N 29°57' W 090°00'8 8.0
2016-May-15 08:33N 29°57' W 090°09'9 9.1
2016-May-15 07:33N 29°56' W 090°20'1 0.0
2016-May-13 21:07N 29°56' W 090°21'5 7.7
2016-May-13 20:24N 29°58' W 090°15'5 5.8
2016-May-13 19:33N 29°57' W 090°10'5 4.9
2016-May-13 18:34N 29°55' W 090°04'4 4.0
2016-May-13 17:33N 29°56' W 089°60'6 6.1
2016-May-13 16:34N 29°52' W 089°55'5 0.5
2016-May-13 05:33N 29°50' W 089°60'5 5.2
2016-May-13 04:31N 29°45' W 090°01'  
2016-May-06 02:29N 29°40' W 089°57'1213.3
2016-May-06 01:33N 29°52' W 089°59'6 6.0
2016-May-06 00:34N 29°57' W 090°02'3 3.3
2016-May-05 23:31N 29°55' W 090°05'0 0.0
2016-May-05 22:31N 29°55' W 090°05'0 0.0
2016-May-05 21:31N 29°55' W 090°05'0 0.0
2016-May-05 20:31N 29°55' W 090°05'0 0.0
2016-May-05 19:31N 29°55' W 090°05'0 0.0
2016-May-05 18:34N 29°55' W 090°05'0 0.0
2016-May-05 17:34N 29°55' W 090°05'0 0.0
2016-May-05 16:33N 29°55' W 090°05'0 0.0
2016-May-05 15:33N 29°55' W 090°05'0 0.0
2016-May-05 14:33N 29°55' W 090°05'0 0.0
2016-May-05 13:33N 29°55' W 090°05'0 0.0
2016-May-05 12:33N 29°55' W 090°05'  

Dump ship's entire track history